createdAt,value
2022-10-22T00:02:19.888Z,96.94
2022-10-22T00:04:48.076Z,96.62
2022-10-22T00:07:15.376Z,97.07
2022-10-22T00:09:41.972Z,96.83
2022-10-22T00:12:08.546Z,96.79
2022-10-22T00:14:35.841Z,96.95
2022-10-22T00:17:02.345Z,97.35
2022-10-22T00:19:28.940Z,97.29
2022-10-22T00:21:55.794Z,97.53
2022-10-22T00:24:22.311Z,97.40
2022-10-22T00:26:48.823Z,97.71
2022-10-22T00:29:15.382Z,97.22
2022-10-22T00:31:41.948Z,97.60
2022-10-22T00:34:08.443Z,97.35
2022-10-22T00:36:35.361Z,97.33
2022-10-22T00:39:01.889Z,97.24
2022-10-22T00:41:28.481Z,96.62
2022-10-22T00:44:01.158Z,97.29
2022-10-22T00:46:28.385Z,97.11
2022-10-22T00:48:58.151Z,97.36
2022-10-22T00:51:28.988Z,97.18
2022-10-22T00:54:01.862Z,97.26
2022-10-22T00:56:28.543Z,97.61
2022-10-22T00:59:00.815Z,97.77
2022-10-22T01:01:30.640Z,98.37
2022-10-22T01:03:57.372Z,98.31
2022-10-22T01:06:26.757Z,98.55
2022-10-22T01:09:02.676Z,98.46
2022-10-22T01:11:43.805Z,98.82
2022-10-22T01:14:22.442Z,98.51
2022-10-22T01:17:04.967Z,98.71
2022-10-22T01:19:50.292Z,98.20
2022-10-22T01:22:32.258Z,98.27
2022-10-22T01:25:09.087Z,98.33
2022-10-22T01:27:54.831Z,98.06
2022-10-22T01:30:22.325Z,97.83
2022-10-22T01:32:55.874Z,98.54
2022-10-22T01:35:27.792Z,98.76
2022-10-22T01:37:57.754Z,98.06
2022-10-22T01:40:26.244Z,98.17
2022-10-22T01:43:01.384Z,98.39
2022-10-22T01:45:33.060Z,98.61
2022-10-22T01:48:22.394Z,98.67
2022-10-22T01:51:21.213Z,98.25
2022-10-22T01:54:08.803Z,98.41
2022-10-22T01:56:53.514Z,97.97
2022-10-22T01:59:44.817Z,97.85
2022-10-22T02:02:17.161Z,97.91
2022-10-22T02:04:59.021Z,98.03
2022-10-22T02:07:30.044Z,97.66
2022-10-22T02:09:58.397Z,97.73
2022-10-22T02:12:28.121Z,97.65
2022-10-22T02:14:57.372Z,97.64
2022-10-22T02:17:26.278Z,97.59
2022-10-22T02:20:10.097Z,97.40
2022-10-22T02:22:37.495Z,97.20
2022-10-22T02:25:06.364Z,96.86
2022-10-22T02:27:47.747Z,97.28
2022-10-22T02:32:56.686Z,97.22
2022-10-22T02:35:25.929Z,97.52
2022-10-22T02:37:55.154Z,97.35
2022-10-22T02:40:22.522Z,97.32
2022-10-22T02:42:51.031Z,97.00
2022-10-22T02:45:19.225Z,96.84
2022-10-22T02:47:46.638Z,96.82
2022-10-22T02:50:13.317Z,97.04
2022-10-22T02:52:40.285Z,97.20
2022-10-22T02:55:08.033Z,96.57
2022-10-22T02:57:34.710Z,96.77
2022-10-22T03:00:01.233Z,96.65
2022-10-22T03:02:27.959Z,97.14
2022-10-22T03:04:54.470Z,97.03
2022-10-22T03:07:20.990Z,96.77
2022-10-22T03:09:47.658Z,96.67
2022-10-22T03:12:14.186Z,97.12
2022-10-22T03:14:40.710Z,97.51
2022-10-22T03:17:07.414Z,97.77
2022-10-22T03:19:33.960Z,97.55
2022-10-22T03:22:14.335Z,97.58
2022-10-22T03:24:44.718Z,97.31
2022-10-22T03:27:14.778Z,97.46
2022-10-22T03:29:42.298Z,97.27
2022-10-22T03:32:08.961Z,97.61
2022-10-22T03:34:35.825Z,97.04
2022-10-22T03:37:02.743Z,97.09
2022-10-22T03:39:31.766Z,97.22
2022-10-22T03:41:58.614Z,96.90
2022-10-22T03:44:25.938Z,97.45
2022-10-22T03:46:52.433Z,97.47
2022-10-22T03:49:19.032Z,97.54
2022-10-22T03:51:45.571Z,97.34
2022-10-22T03:54:12.111Z,98.18
2022-10-22T03:56:38.732Z,97.98
2022-10-22T03:59:05.324Z,97.48
2022-10-22T04:01:32.135Z,97.61
2022-10-22T04:03:58.791Z,98.47
2022-10-22T04:06:25.607Z,98.19
2022-10-22T04:08:52.446Z,98.36
2022-10-22T04:11:19.053Z,98.40
2022-10-22T04:13:45.599Z,98.06
2022-10-22T04:16:12.237Z,97.85
2022-10-22T04:18:39.860Z,98.05
2022-10-22T04:21:08.351Z,98.47
2022-10-22T04:23:34.854Z,98.38
2022-10-22T04:26:05.600Z,98.24
2022-10-22T04:28:32.451Z,99.04
2022-10-22T04:30:58.958Z,98.83
2022-10-22T04:33:25.717Z,98.39
2022-10-22T04:35:52.243Z,98.87
2022-10-22T04:38:18.806Z,98.40
2022-10-22T04:40:45.506Z,98.28
2022-10-22T04:43:12.080Z,98.49
2022-10-22T04:45:38.574Z,98.38
2022-10-22T04:48:05.486Z,98.76
2022-10-22T04:50:32.042Z,98.81
2022-10-22T04:52:58.561Z,98.68
2022-10-22T04:55:25.208Z,98.43
2022-10-22T04:57:51.831Z,98.07
2022-10-22T05:00:18.384Z,98.46
2022-10-22T05:02:49.253Z,98.79
2022-10-22T05:05:15.958Z,99.10
2022-10-22T05:07:42.670Z,98.80
2022-10-22T05:10:10.144Z,98.90
2022-10-22T05:12:36.737Z,98.29
2022-10-22T05:15:03.535Z,98.76
2022-10-22T05:17:30.222Z,98.62
2022-10-22T05:19:56.746Z,98.87
2022-10-22T05:22:23.248Z,98.47
2022-10-22T05:24:49.786Z,99.15
2022-10-22T05:27:16.429Z,98.99
2022-10-22T05:29:42.977Z,99.21
2022-10-22T05:32:10.011Z,99.06
2022-10-22T05:34:36.800Z,98.05
2022-10-22T05:37:03.906Z,97.89
2022-10-22T05:39:30.474Z,97.80
2022-10-22T05:41:56.993Z,98.19
2022-10-22T05:44:23.486Z,98.01
2022-10-22T05:46:50.165Z,98.07
2022-10-22T05:49:16.673Z,97.61
2022-10-22T05:51:43.219Z,97.81
2022-10-22T05:54:17.424Z,97.80
2022-10-22T05:56:44.046Z,97.88
2022-10-22T05:59:11.563Z,98.14
2022-10-22T06:01:39.615Z,98.16
2022-10-22T06:04:10.115Z,97.71
2022-10-22T06:06:52.954Z,97.99
2022-10-22T06:09:29.125Z,97.81
2022-10-22T06:11:56.739Z,97.59
2022-10-22T06:14:24.526Z,97.56
2022-10-22T06:16:51.367Z,97.77
2022-10-22T06:19:20.603Z,97.40
2022-10-22T06:21:48.015Z,96.89
2022-10-22T06:24:14.789Z,96.22
2022-10-22T06:26:42.012Z,96.42
2022-10-22T06:29:08.852Z,95.83
2022-10-22T06:31:38.348Z,96.01
2022-10-22T06:34:07.685Z,95.90
2022-10-22T06:36:34.951Z,95.69
2022-10-22T06:39:01.983Z,95.79
2022-10-22T06:41:28.879Z,95.77
2022-10-22T06:43:57.583Z,95.92
2022-10-22T06:46:25.226Z,95.88
2022-10-22T06:48:54.137Z,95.88
2022-10-22T06:51:21.223Z,95.93
2022-10-22T06:53:48.450Z,95.81
2022-10-22T06:56:18.202Z,95.66
2022-10-22T06:58:50.843Z,94.92
2022-10-22T07:01:20.385Z,95.25
2022-10-22T07:03:47.448Z,95.13
2022-10-22T07:06:15.204Z,94.82
2022-10-22T07:08:42.601Z,94.24
2022-10-22T07:11:18.709Z,94.38
2022-10-22T07:13:46.159Z,93.21
2022-10-22T07:16:13.637Z,93.48
2022-10-22T07:18:41.534Z,92.25
2022-10-22T07:21:09.382Z,90.71
2022-10-22T07:23:35.899Z,90.00
2022-10-22T07:26:03.082Z,89.17
2022-10-22T07:28:30.974Z,89.59
2022-10-22T07:30:57.954Z,88.44
2022-10-22T07:33:24.523Z,87.13
2022-10-22T07:35:51.236Z,87.73
2022-10-22T07:38:17.829Z,88.18
2022-10-22T07:40:44.403Z,87.59
2022-10-22T07:43:11.121Z,88.08
2022-10-22T07:45:37.702Z,88.26
2022-10-22T07:48:04.533Z,88.80
2022-10-22T07:50:31.324Z,88.27
2022-10-22T07:52:58.388Z,87.61
2022-10-22T07:55:25.703Z,88.07
2022-10-22T07:57:52.497Z,87.20
2022-10-22T08:00:23.035Z,87.50
2022-10-22T08:02:51.805Z,87.19
2022-10-22T08:05:18.534Z,87.14
2022-10-22T08:07:45.222Z,87.33
2022-10-22T08:10:12.964Z,86.75
2022-10-22T08:12:40.704Z,87.10
2022-10-22T08:15:08.436Z,87.17
2022-10-22T08:17:35.057Z,87.01
2022-10-22T08:20:01.727Z,87.87
2022-10-22T08:22:28.262Z,87.58
2022-10-22T08:24:54.993Z,86.55
2022-10-22T08:27:21.654Z,86.50
2022-10-22T08:29:48.229Z,86.66
2022-10-22T08:32:14.793Z,87.08
2022-10-22T08:34:41.480Z,85.69
2022-10-22T08:37:08.623Z,84.54
2022-10-22T08:39:35.597Z,84.74
2022-10-22T08:42:11.151Z,85.26
2022-10-22T08:45:15.382Z,86.75
2022-10-22T08:48:00.235Z,86.55
2022-10-22T08:50:33.754Z,87.77
2022-10-22T08:53:05.747Z,87.76
2022-10-22T08:55:37.247Z,87.37
2022-10-22T08:58:10.212Z,87.27
2022-10-22T09:00:46.144Z,87.25
2022-10-22T09:03:12.756Z,88.54
2022-10-22T09:06:08.766Z,88.88
2022-10-22T09:08:36.766Z,87.53
2022-10-22T09:11:21.729Z,86.68
2022-10-22T09:13:49.362Z,85.27
2022-10-22T09:16:18.221Z,84.42
2022-10-22T09:19:09.742Z,83.30
2022-10-22T09:22:01.560Z,84.16
2022-10-22T09:24:38.894Z,82.86
2022-10-22T09:27:32.061Z,82.50
2022-10-22T09:29:58.629Z,81.63
2022-10-22T09:32:25.659Z,81.46
2022-10-22T09:34:57.011Z,82.95
2022-10-22T09:37:28.163Z,83.55
2022-10-22T09:39:56.686Z,81.94
2022-10-22T09:42:23.379Z,81.61
2022-10-22T09:44:58.629Z,82.10
2022-10-22T09:48:00.622Z,81.37
2022-10-22T09:50:39.643Z,79.85
2022-10-22T09:53:13.047Z,80.25
2022-10-22T09:55:41.992Z,81.39
2022-10-22T09:58:12.366Z,81.25
2022-10-22T10:00:41.334Z,79.26
2022-10-22T10:03:17.356Z,79.68
2022-10-22T10:05:48.320Z,79.87
2022-10-22T10:08:17.587Z,77.77
2022-10-22T10:10:44.263Z,77.93
2022-10-22T10:13:17.738Z,78.77
2022-10-22T10:16:15.766Z,77.18
2022-10-22T10:19:04.174Z,77.04
2022-10-22T10:21:57.835Z,75.54
2022-10-22T10:24:44.552Z,76.24
2022-10-22T10:27:23.777Z,76.98
2022-10-22T10:30:02.575Z,76.50
2022-10-22T10:32:54.222Z,76.21
2022-10-22T10:35:35.090Z,77.81
2022-10-22T10:38:16.948Z,76.74
2022-10-22T10:41:25.462Z,76.91
2022-10-22T10:44:32.467Z,75.82
2022-10-22T10:47:43.562Z,76.41
2022-10-22T10:50:40.649Z,78.46
2022-10-22T10:53:21.733Z,75.18
2022-10-22T10:55:54.561Z,76.39
2022-10-22T10:58:42.868Z,74.53
2022-10-22T11:01:24.657Z,72.40
2022-10-22T11:04:17.421Z,73.36
2022-10-22T11:06:45.641Z,73.97
2022-10-22T11:09:27.343Z,72.60
2022-10-22T11:12:04.071Z,74.35
2022-10-22T11:14:39.091Z,75.38
2022-10-22T11:17:14.259Z,77.00
2022-10-22T11:20:08.408Z,75.52
2022-10-22T11:22:50.415Z,75.24
2022-10-22T11:25:45.302Z,74.17
2022-10-22T11:28:19.821Z,74.54
2022-10-22T11:30:52.086Z,74.23
2022-10-22T11:33:24.735Z,72.22
2022-10-22T11:35:53.112Z,73.15
2022-10-22T11:38:24.096Z,73.17
2022-10-22T11:41:01.249Z,73.48
2022-10-22T11:43:38.059Z,73.46
2022-10-22T11:46:16.874Z,73.37
2022-10-22T11:48:43.826Z,73.06
2022-10-22T11:51:33.927Z,71.86
2022-10-22T11:54:21.866Z,70.91
2022-10-22T11:56:53.191Z,69.27
2022-10-22T11:59:39.722Z,71.21
2022-10-22T12:02:39.840Z,70.21
2022-10-22T12:05:18.607Z,70.16
2022-10-22T12:08:02.817Z,68.81
2022-10-22T12:10:57.449Z,69.61
2022-10-22T12:13:27.934Z,70.75
2022-10-22T12:16:02.435Z,68.79
2022-10-22T12:18:41.266Z,69.45
2022-10-22T12:21:13.491Z,67.49
2022-10-22T12:23:40.531Z,68.78
2022-10-22T12:26:23.213Z,65.60
2022-10-22T12:28:49.782Z,68.66
2022-10-22T12:31:17.102Z,69.45
2022-10-22T12:33:44.023Z,67.53
2022-10-22T12:36:18.155Z,67.31
2022-10-22T12:38:47.676Z,67.33
2022-10-22T12:41:14.283Z,67.67
2022-10-22T12:43:40.742Z,69.25
2022-10-22T12:46:13.939Z,67.90
2022-10-22T12:48:44.051Z,69.16
2022-10-22T12:51:18.901Z,67.94
2022-10-22T12:53:53.329Z,68.56
2022-10-22T12:56:29.003Z,68.57
2022-10-22T12:59:02.633Z,67.82
2022-10-22T13:01:36.225Z,67.35
2022-10-22T13:04:17.075Z,67.08
2022-10-22T13:06:45.740Z,67.68
2022-10-22T13:09:27.591Z,65.88
2022-10-22T13:12:01.890Z,65.77
2022-10-22T13:14:34.097Z,65.39
2022-10-22T13:17:15.714Z,65.10
2022-10-22T13:19:42.391Z,63.54
2022-10-22T13:22:35.559Z,63.50
2022-10-22T13:25:05.149Z,60.32
2022-10-22T13:27:31.889Z,59.19
2022-10-22T13:30:10.401Z,58.71
2022-10-22T13:32:37.051Z,60.14
2022-10-22T13:35:04.299Z,58.92
2022-10-22T13:37:34.255Z,59.97
2022-10-22T13:40:00.763Z,60.55
2022-10-22T13:42:27.245Z,60.86
2022-10-22T13:44:53.795Z,61.27
2022-10-22T13:47:29.243Z,60.36
2022-10-22T13:49:58.914Z,61.38
2022-10-22T13:52:41.325Z,61.82
2022-10-22T13:55:20.008Z,62.50
2022-10-22T13:57:47.447Z,61.98
2022-10-22T14:00:20.345Z,62.92
2022-10-22T14:02:50.434Z,63.51
2022-10-22T14:05:18.028Z,63.88
2022-10-22T14:07:45.562Z,63.35
2022-10-22T14:10:20.931Z,62.19
2022-10-22T14:12:52.424Z,62.37
2022-10-22T14:15:24.123Z,62.81
2022-10-22T14:17:56.202Z,63.68
2022-10-22T14:20:31.106Z,62.82
2022-10-22T14:23:05.187Z,63.03
2022-10-22T14:25:31.785Z,63.22
2022-10-22T14:27:58.278Z,62.83
2022-10-22T14:30:26.447Z,61.64
2022-10-22T14:32:53.079Z,61.86
2022-10-22T14:35:22.659Z,61.44
2022-10-22T14:37:49.865Z,60.70
2022-10-22T14:40:20.263Z,60.30
2022-10-22T14:42:48.980Z,61.10
2022-10-22T14:45:24.467Z,62.82
2022-10-22T14:47:52.396Z,63.56
2022-10-22T14:50:19.145Z,64.18
2022-10-22T14:52:45.939Z,65.50
2022-10-22T14:55:14.457Z,63.11
2022-10-22T14:57:41.953Z,64.80
2022-10-22T15:00:16.888Z,66.14
2022-10-22T15:02:44.051Z,65.76
2022-10-22T15:05:11.399Z,66.27
2022-10-22T15:07:38.671Z,67.61
2022-10-22T15:10:06.850Z,68.55
2022-10-22T15:12:33.411Z,69.35
2022-10-22T15:14:59.984Z,69.20
2022-10-22T15:17:26.452Z,67.93
2022-10-22T15:19:53.277Z,64.85
2022-10-22T15:22:20.614Z,63.54
2022-10-22T15:24:48.532Z,64.08
2022-10-22T15:27:15.498Z,63.56
2022-10-22T15:29:42.752Z,62.58
2022-10-22T15:32:13.032Z,62.70
2022-10-22T15:34:40.363Z,62.20
2022-10-22T15:37:12.338Z,62.33
2022-10-22T15:39:42.638Z,64.34
2022-10-22T15:42:09.986Z,66.65
2022-10-22T15:44:37.230Z,69.45
2022-10-22T15:47:06.331Z,71.22
2022-10-22T15:49:35.535Z,73.48
2022-10-22T15:52:02.419Z,75.87
2022-10-22T15:54:30.347Z,77.54
2022-10-22T15:56:58.391Z,78.41
2022-10-22T15:59:25.525Z,79.65
2022-10-22T16:01:52.169Z,80.65
2022-10-22T16:04:18.727Z,80.87
2022-10-22T16:06:52.660Z,81.86
2022-10-22T16:09:25.122Z,83.04
2022-10-22T16:14:24.702Z,83.36
2022-10-22T16:16:53.943Z,84.10
2022-10-22T16:19:22.657Z,85.20
2022-10-22T16:21:54.481Z,85.67
2022-10-22T16:24:21.854Z,86.38
2022-10-22T16:26:49.155Z,86.71
2022-10-22T16:29:15.964Z,86.81
2022-10-22T16:31:43.959Z,86.41
2022-10-22T16:34:10.765Z,86.59
2022-10-22T16:36:38.473Z,87.24
2022-10-22T16:39:06.169Z,87.84
2022-10-22T16:41:36.381Z,88.14
2022-10-22T16:44:08.021Z,88.47
2022-10-22T16:46:38.352Z,88.20
2022-10-22T16:49:05.861Z,89.00
2022-10-22T16:51:32.430Z,89.04
2022-10-22T16:53:59.024Z,89.06
2022-10-22T16:56:26.193Z,89.08
2022-10-22T16:58:55.796Z,89.69
2022-10-22T17:01:26.392Z,89.43
2022-10-22T17:03:54.772Z,89.35
2022-10-22T17:06:22.694Z,89.50
2022-10-22T17:08:49.380Z,89.76
2022-10-22T17:11:18.547Z,90.07
2022-10-22T17:13:48.914Z,90.42
2022-10-22T17:16:17.792Z,89.88
2022-10-22T17:21:19.235Z,90.62
2022-10-22T17:23:46.382Z,90.32
2022-10-22T17:26:19.727Z,90.51
2022-10-22T17:28:46.934Z,91.00
2022-10-22T17:31:23.753Z,90.54
2022-10-22T17:33:52.613Z,90.47
2022-10-22T17:36:20.160Z,91.03
2022-10-22T17:38:52.782Z,91.39
2022-10-22T17:41:22.047Z,91.00
2022-10-22T17:43:48.976Z,91.24
2022-10-22T17:46:25.956Z,91.31
2022-10-22T17:49:15.546Z,92.24
2022-10-22T17:51:42.122Z,91.62
2022-10-22T17:54:10.032Z,92.04
2022-10-22T17:56:37.736Z,92.50
2022-10-22T17:59:04.589Z,92.16
2022-10-22T18:01:34.232Z,91.83
2022-10-22T18:04:04.068Z,91.68
2022-10-22T18:06:31.509Z,92.15
2022-10-22T18:08:58.124Z,92.76
2022-10-22T18:11:27.419Z,92.96
2022-10-22T18:13:56.824Z,92.52
2022-10-22T18:16:23.685Z,93.22
2022-10-22T18:18:55.655Z,93.00
2022-10-22T18:21:24.528Z,93.32
2022-10-22T18:23:51.301Z,92.64
2022-10-22T18:26:20.305Z,93.46
2022-10-22T18:28:49.477Z,92.85
2022-10-22T18:31:22.417Z,93.44
2022-10-22T18:33:49.132Z,93.19
2022-10-22T18:36:19.261Z,93.25
2022-10-22T18:38:56.747Z,93.91
2022-10-22T18:41:24.232Z,93.55
2022-10-22T18:43:58.679Z,93.72
2022-10-22T18:46:26.471Z,94.01
2022-10-22T18:48:54.780Z,93.64
2022-10-22T18:51:21.669Z,94.19
2022-10-22T18:54:04.553Z,93.71
2022-10-22T18:56:40.499Z,94.05
2022-10-22T18:59:07.687Z,93.82
2022-10-22T19:01:35.546Z,93.59
2022-10-22T19:04:02.152Z,93.69
2022-10-22T19:06:34.425Z,93.63
2022-10-22T19:09:03.907Z,93.85
2022-10-22T19:11:31.509Z,94.13
2022-10-22T19:13:58.403Z,94.66
2022-10-22T19:16:25.953Z,94.41
2022-10-22T19:18:58.605Z,94.52
2022-10-22T19:21:25.183Z,94.49
2022-10-22T19:23:51.846Z,94.80
2022-10-22T19:26:19.097Z,94.66
2022-10-22T19:28:45.694Z,94.81
2022-10-22T19:31:16.848Z,94.93
2022-10-22T19:33:43.663Z,94.39
2022-10-22T19:36:15.267Z,94.66
2022-10-22T19:38:44.502Z,95.10
2022-10-22T19:41:13.163Z,94.75
2022-10-22T19:43:40.508Z,95.03
2022-10-22T19:46:07.745Z,95.42
2022-10-22T19:48:35.237Z,95.65
2022-10-22T19:51:04.366Z,96.13
2022-10-22T19:53:32.478Z,96.28
2022-10-22T19:56:00.210Z,96.06
2022-10-22T19:58:27.809Z,97.11
2022-10-22T20:00:54.747Z,96.57
2022-10-22T20:03:21.679Z,96.73
2022-10-22T20:05:50.662Z,96.96
2022-10-22T20:08:17.487Z,97.46
2022-10-22T20:10:44.039Z,97.17
2022-10-22T20:13:10.539Z,96.60
2022-10-22T20:15:37.042Z,97.17
2022-10-22T20:18:03.701Z,96.92
2022-10-22T20:20:30.461Z,97.47
2022-10-22T20:22:57.418Z,97.29
2022-10-22T20:25:23.918Z,96.98
2022-10-22T20:27:50.492Z,96.91
2022-10-22T20:30:19.696Z,96.37
2022-10-22T20:32:46.249Z,96.61
2022-10-22T20:35:15.050Z,96.90
2022-10-22T20:37:41.629Z,97.26
2022-10-22T20:40:08.655Z,97.13
2022-10-22T20:42:35.175Z,96.93
2022-10-22T20:45:01.950Z,97.18
2022-10-22T20:47:39.173Z,97.45
2022-10-22T20:50:15.028Z,96.93
2022-10-22T20:52:41.543Z,96.95
2022-10-22T20:55:08.165Z,97.55
2022-10-22T20:57:35.498Z,97.93
2022-10-22T21:00:02.101Z,98.03
2022-10-22T21:02:28.682Z,97.84
2022-10-22T21:04:55.203Z,97.52
2022-10-22T21:07:21.697Z,97.47
2022-10-22T21:09:48.203Z,97.77
2022-10-22T21:12:15.177Z,98.25
2022-10-22T21:14:41.737Z,97.85
2022-10-22T21:17:08.274Z,97.85
2022-10-22T21:19:35.300Z,97.54
2022-10-22T21:22:01.839Z,98.69
2022-10-22T21:24:28.375Z,98.70
2022-10-22T21:26:55.175Z,98.36
2022-10-22T21:29:21.926Z,98.22
2022-10-22T21:31:48.423Z,98.15
2022-10-22T21:34:15.047Z,98.82
2022-10-22T21:36:41.655Z,98.18
2022-10-22T21:39:08.259Z,98.33
2022-10-22T21:41:37.327Z,98.52
2022-10-22T21:44:04.015Z,98.25
2022-10-22T21:46:30.621Z,99.02
2022-10-22T21:49:02.420Z,98.71
2022-10-22T21:51:31.661Z,98.29
2022-10-22T21:53:58.543Z,98.31
2022-10-22T21:56:28.551Z,98.77
2022-10-22T21:58:55.869Z,98.67
2022-10-22T22:01:22.947Z,99.13
2022-10-22T22:03:50.733Z,98.82
2022-10-22T22:06:21.376Z,98.74
2022-10-22T22:08:49.492Z,98.64
2022-10-22T22:11:18.802Z,98.57
2022-10-22T22:13:45.307Z,98.21
2022-10-22T22:16:14.909Z,98.94
2022-10-22T22:18:42.095Z,98.37
2022-10-22T22:21:12.217Z,98.97
2022-10-22T22:23:41.058Z,98.35
2022-10-22T22:26:08.336Z,98.13
2022-10-22T22:28:36.044Z,98.51
2022-10-22T22:31:11.686Z,98.29
2022-10-22T22:33:38.166Z,98.32
2022-10-22T22:36:05.064Z,98.23
2022-10-22T22:38:31.803Z,98.37
2022-10-22T22:41:01.824Z,96.66
2022-10-22T22:43:28.295Z,97.27
2022-10-22T22:46:07.014Z,97.72
2022-10-22T22:48:34.364Z,98.00
2022-10-22T22:51:03.171Z,97.93
2022-10-22T22:53:29.886Z,98.04
2022-10-22T22:56:10.370Z,97.81
2022-10-22T22:58:38.361Z,98.09
2022-10-22T23:01:27.505Z,98.35
2022-10-22T23:04:16.607Z,98.19
2022-10-22T23:06:43.332Z,98.00
2022-10-22T23:09:13.796Z,97.60
2022-10-22T23:11:41.960Z,97.12
2022-10-22T23:14:12.135Z,97.34
2022-10-22T23:16:42.557Z,97.75
2022-10-22T23:19:09.995Z,97.53
2022-10-22T23:21:39.874Z,97.85
2022-10-22T23:24:09.776Z,97.49
2022-10-22T23:26:39.903Z,97.98
2022-10-22T23:29:20.084Z,98.33
2022-10-22T23:31:47.585Z,98.55
2022-10-22T23:34:16.989Z,98.23
2022-10-22T23:36:44.390Z,98.21
2022-10-22T23:39:13.371Z,98.41
2022-10-22T23:41:40.307Z,98.20
2022-10-22T23:44:08.288Z,98.39
2022-10-22T23:46:35.458Z,98.76
2022-10-22T23:49:02.122Z,98.65
2022-10-22T23:51:28.982Z,98.17
2022-10-22T23:53:58.532Z,98.43
2022-10-22T23:56:26.205Z,98.72
2022-10-22T23:58:53.580Z,98.97
